sensor_id;sensor_type;location;lat;lon;timestamp;temperature;humidity
65048;DHT22;52089;51.362;-2.384;2023-02-15T00:03:07;17.70;63.60
65048;DHT22;52089;51.362;-2.384;2023-02-15T00:06:49;17.70;63.70
65048;DHT22;52089;51.362;-2.384;2023-02-15T00:10:31;17.70;63.60
65048;DHT22;52089;51.362;-2.384;2023-02-15T00:14:21;17.70;63.60
65048;DHT22;52089;51.362;-2.384;2023-02-15T00:18:03;17.70;64.20
65048;DHT22;52089;51.362;-2.384;2023-02-15T00:21:45;17.70;63.60
65048;DHT22;52089;51.362;-2.384;2023-02-15T00:25:27;17.70;63.60
65048;DHT22;52089;51.362;-2.384;2023-02-15T00:29:12;17.70;63.60
65048;DHT22;52089;51.362;-2.384;2023-02-15T00:33:01;17.70;63.50
65048;DHT22;52089;51.362;-2.384;2023-02-15T00:36:56;17.70;63.60
65048;DHT22;52089;51.362;-2.384;2023-02-15T00:40:43;17.70;63.50
65048;DHT22;52089;51.362;-2.384;2023-02-15T00:44:32;17.70;63.50
65048;DHT22;52089;51.362;-2.384;2023-02-15T00:48:14;17.70;63.70
65048;DHT22;52089;51.362;-2.384;2023-02-15T00:51:56;17.70;63.60
65048;DHT22;52089;51.362;-2.384;2023-02-15T00:55:38;17.70;63.50
65048;DHT22;52089;51.362;-2.384;2023-02-15T00:59:21;17.70;63.50
65048;DHT22;52089;51.362;-2.384;2023-02-15T01:03:04;17.70;64.10
65048;DHT22;52089;51.362;-2.384;2023-02-15T01:06:45;17.70;63.50
65048;DHT22;52089;51.362;-2.384;2023-02-15T01:10:28;17.70;63.40
65048;DHT22;52089;51.362;-2.384;2023-02-15T01:14:10;17.70;63.30
65048;DHT22;52089;51.362;-2.384;2023-02-15T01:17:52;17.60;63.20
65048;DHT22;52089;51.362;-2.384;2023-02-15T01:21:34;17.70;63.20
65048;DHT22;52089;51.362;-2.384;2023-02-15T01:25:17;17.70;63.20
65048;DHT22;52089;51.362;-2.384;2023-02-15T01:28:59;17.60;63.20
65048;DHT22;52089;51.362;-2.384;2023-02-15T01:32:42;17.60;63.20
65048;DHT22;52089;51.362;-2.384;2023-02-15T01:36:24;17.60;63.10
65048;DHT22;52089;51.362;-2.384;2023-02-15T01:40:09;17.60;63.10
65048;DHT22;52089;51.362;-2.384;2023-02-15T01:43:54;17.60;63.10
65048;DHT22;52089;51.362;-2.384;2023-02-15T01:47:39;17.60;63.10
65048;DHT22;52089;51.362;-2.384;2023-02-15T01:51:24;17.60;63.10
65048;DHT22;52089;51.362;-2.384;2023-02-15T01:55:07;17.50;63.00
65048;DHT22;52089;51.362;-2.384;2023-02-15T01:58:53;17.60;63.00
65048;DHT22;52089;51.362;-2.384;2023-02-15T02:02:36;17.50;63.00
65048;DHT22;52089;51.362;-2.384;2023-02-15T02:06:19;17.50;63.00
65048;DHT22;52089;51.362;-2.384;2023-02-15T02:10:03;17.50;62.90
65048;DHT22;52089;51.362;-2.384;2023-02-15T02:13:45;17.50;62.90
65048;DHT22;52089;51.362;-2.384;2023-02-15T02:26:09;17.50;62.90
65048;DHT22;52089;51.362;-2.384;2023-02-15T02:29:49;17.40;62.80
65048;DHT22;52089;51.362;-2.384;2023-02-15T02:38:03;17.40;62.80
65048;DHT22;52089;51.362;-2.384;2023-02-15T02:42:06;17.50;62.90
65048;DHT22;52089;51.362;-2.384;2023-02-15T02:46:02;17.40;62.80
65048;DHT22;52089;51.362;-2.384;2023-02-15T02:49:47;17.40;62.80
65048;DHT22;52089;51.362;-2.384;2023-02-15T02:53:30;17.40;62.80
65048;DHT22;52089;51.362;-2.384;2023-02-15T02:57:12;17.40;62.80
65048;DHT22;52089;51.362;-2.384;2023-02-15T03:01:11;17.40;62.80
65048;DHT22;52089;51.362;-2.384;2023-02-15T03:04:59;17.40;62.70
65048;DHT22;52089;51.362;-2.384;2023-02-15T03:08:49;17.40;62.70
65048;DHT22;52089;51.362;-2.384;2023-02-15T03:12:35;17.40;62.70
65048;DHT22;52089;51.362;-2.384;2023-02-15T03:16:19;17.40;62.70
65048;DHT22;52089;51.362;-2.384;2023-02-15T03:20:14;17.30;62.60
65048;DHT22;52089;51.362;-2.384;2023-02-15T03:24:09;17.30;62.60
65048;DHT22;52089;51.362;-2.384;2023-02-15T03:27:59;17.40;62.60
65048;DHT22;52089;51.362;-2.384;2023-02-15T03:31:45;17.30;62.60
65048;DHT22;52089;51.362;-2.384;2023-02-15T03:35:37;17.30;62.60
65048;DHT22;52089;51.362;-2.384;2023-02-15T03:39:35;17.30;62.60
65048;DHT22;52089;51.362;-2.384;2023-02-15T03:44:11;17.30;62.60
65048;DHT22;52089;51.362;-2.384;2023-02-15T03:47:30;17.30;62.60
65048;DHT22;52089;51.362;-2.384;2023-02-15T03:51:18;17.30;62.60
65048;DHT22;52089;51.362;-2.384;2023-02-15T03:55:16;17.30;62.60
65048;DHT22;52089;51.362;-2.384;2023-02-15T03:58:57;17.30;62.60
65048;DHT22;52089;51.362;-2.384;2023-02-15T04:07:03;17.30;62.60
65048;DHT22;52089;51.362;-2.384;2023-02-15T04:10:45;17.30;62.50
65048;DHT22;52089;51.362;-2.384;2023-02-15T04:14:37;17.30;62.50
65048;DHT22;52089;51.362;-2.384;2023-02-15T04:18:43;17.20;62.50
65048;DHT22;52089;51.362;-2.384;2023-02-15T04:22:43;17.20;62.40
65048;DHT22;52089;51.362;-2.384;2023-02-15T04:26:44;17.20;62.40
65048;DHT22;52089;51.362;-2.384;2023-02-15T04:30:26;17.20;62.40
65048;DHT22;52089;51.362;-2.384;2023-02-15T04:34:08;17.20;62.40
65048;DHT22;52089;51.362;-2.384;2023-02-15T04:37:51;17.20;62.40
65048;DHT22;52089;51.362;-2.384;2023-02-15T04:41:33;17.20;62.40
65048;DHT22;52089;51.362;-2.384;2023-02-15T04:45:15;17.20;62.40
65048;DHT22;52089;51.362;-2.384;2023-02-15T04:48:57;17.20;62.40
65048;DHT22;52089;51.362;-2.384;2023-02-15T04:52:39;17.20;62.40
65048;DHT22;52089;51.362;-2.384;2023-02-15T04:56:21;17.10;62.40
65048;DHT22;52089;51.362;-2.384;2023-02-15T05:00:03;17.10;62.40
65048;DHT22;52089;51.362;-2.384;2023-02-15T05:03:45;17.10;62.40
65048;DHT22;52089;51.362;-2.384;2023-02-15T05:07:27;17.10;62.40
65048;DHT22;52089;51.362;-2.384;2023-02-15T05:11:08;17.10;62.40
65048;DHT22;52089;51.362;-2.384;2023-02-15T05:14:50;17.20;62.50
65048;DHT22;52089;51.362;-2.384;2023-02-15T05:18:32;17.10;62.40
65048;DHT22;52089;51.362;-2.384;2023-02-15T05:22:14;17.10;62.40
65048;DHT22;52089;51.362;-2.384;2023-02-15T05:25:56;17.10;62.50
65048;DHT22;52089;51.362;-2.384;2023-02-15T05:29:56;17.10;62.40
65048;DHT22;52089;51.362;-2.384;2023-02-15T05:33:39;17.10;62.50
65048;DHT22;52089;51.362;-2.384;2023-02-15T05:37:21;17.10;62.50
65048;DHT22;52089;51.362;-2.384;2023-02-15T05:41:03;17.10;62.40
65048;DHT22;52089;51.362;-2.384;2023-02-15T05:44:46;17.10;62.50
65048;DHT22;52089;51.362;-2.384;2023-02-15T05:48:28;17.10;62.40
65048;DHT22;52089;51.362;-2.384;2023-02-15T05:52:09;17.10;62.40
65048;DHT22;52089;51.362;-2.384;2023-02-15T05:55:54;17.10;62.40
65048;DHT22;52089;51.362;-2.384;2023-02-15T05:59:41;17.10;62.40
65048;DHT22;52089;51.362;-2.384;2023-02-15T06:03:23;17.10;62.40
65048;DHT22;52089;51.362;-2.384;2023-02-15T06:07:07;17.10;62.30
65048;DHT22;52089;51.362;-2.384;2023-02-15T06:10:48;17.10;62.40
65048;DHT22;52089;51.362;-2.384;2023-02-15T06:14:30;17.10;62.30
65048;DHT22;52089;51.362;-2.384;2023-02-15T06:18:12;17.10;62.40
65048;DHT22;52089;51.362;-2.384;2023-02-15T06:21:54;17.10;62.40
65048;DHT22;52089;51.362;-2.384;2023-02-15T06:25:35;17.10;62.40
65048;DHT22;52089;51.362;-2.384;2023-02-15T06:29:20;17.10;62.40
65048;DHT22;52089;51.362;-2.384;2023-02-15T06:33:02;17.10;62.30
65048;DHT22;52089;51.362;-2.384;2023-02-15T06:36:44;17.00;62.30
65048;DHT22;52089;51.362;-2.384;2023-02-15T06:40:25;17.10;62.40
65048;DHT22;52089;51.362;-2.384;2023-02-15T06:44:07;17.00;62.30
65048;DHT22;52089;51.362;-2.384;2023-02-15T06:47:49;17.00;62.30
65048;DHT22;52089;51.362;-2.384;2023-02-15T06:51:31;17.00;62.30
65048;DHT22;52089;51.362;-2.384;2023-02-15T06:55:13;17.00;62.40
65048;DHT22;52089;51.362;-2.384;2023-02-15T06:58:54;17.00;62.40
65048;DHT22;52089;51.362;-2.384;2023-02-15T07:02:36;17.00;62.40
65048;DHT22;52089;51.362;-2.384;2023-02-15T07:06:18;17.00;62.30
65048;DHT22;52089;51.362;-2.384;2023-02-15T07:10:00;17.00;62.40
65048;DHT22;52089;51.362;-2.384;2023-02-15T07:13:42;17.00;62.40
65048;DHT22;52089;51.362;-2.384;2023-02-15T07:17:24;17.00;62.40
65048;DHT22;52089;51.362;-2.384;2023-02-15T07:21:17;17.00;62.50
65048;DHT22;52089;51.362;-2.384;2023-02-15T07:24:59;16.90;62.40
65048;DHT22;52089;51.362;-2.384;2023-02-15T07:28:41;17.00;62.50
65048;DHT22;52089;51.362;-2.384;2023-02-15T07:32:23;17.00;62.50
65048;DHT22;52089;51.362;-2.384;2023-02-15T07:36:05;17.00;62.50
65048;DHT22;52089;51.362;-2.384;2023-02-15T07:39:47;17.00;62.50
65048;DHT22;52089;51.362;-2.384;2023-02-15T07:43:29;17.00;62.50
65048;DHT22;52089;51.362;-2.384;2023-02-15T07:47:11;17.00;62.60
65048;DHT22;52089;51.362;-2.384;2023-02-15T07:50:53;16.90;62.60
65048;DHT22;52089;51.362;-2.384;2023-02-15T07:54:35;16.90;62.50
65048;DHT22;52089;51.362;-2.384;2023-02-15T07:58:17;16.90;62.60
65048;DHT22;52089;51.362;-2.384;2023-02-15T08:01:58;16.90;62.70
65048;DHT22;52089;51.362;-2.384;2023-02-15T08:05:43;17.00;63.00
65048;DHT22;52089;51.362;-2.384;2023-02-15T08:09:25;17.00;63.10
65048;DHT22;52089;51.362;-2.384;2023-02-15T08:13:06;17.00;63.30
65048;DHT22;52089;51.362;-2.384;2023-02-15T08:20:31;17.00;63.40
65048;DHT22;52089;51.362;-2.384;2023-02-15T08:24:14;17.10;63.50
65048;DHT22;52089;51.362;-2.384;2023-02-15T08:27:56;17.00;63.40
65048;DHT22;52089;51.362;-2.384;2023-02-15T08:31:38;17.10;63.50
65048;DHT22;52089;51.362;-2.384;2023-02-15T08:35:22;17.10;63.60
65048;DHT22;52089;51.362;-2.384;2023-02-15T08:39:05;17.10;63.60
65048;DHT22;52089;51.362;-2.384;2023-02-15T08:42:47;17.10;63.70
65048;DHT22;52089;51.362;-2.384;2023-02-15T08:46:32;17.20;63.80
65048;DHT22;52089;51.362;-2.384;2023-02-15T08:50:14;17.20;63.90
65048;DHT22;52089;51.362;-2.384;2023-02-15T08:53:58;17.20;63.90
65048;DHT22;52089;51.362;-2.384;2023-02-15T08:57:40;17.30;64.00
65048;DHT22;52089;51.362;-2.384;2023-02-15T09:01:28;17.30;64.00
65048;DHT22;52089;51.362;-2.384;2023-02-15T09:05:10;17.30;64.00
65048;DHT22;52089;51.362;-2.384;2023-02-15T09:08:53;17.30;63.90
65048;DHT22;52089;51.362;-2.384;2023-02-15T09:12:34;17.40;63.90
65048;DHT22;52089;51.362;-2.384;2023-02-15T09:16:16;17.40;63.90
65048;DHT22;52089;51.362;-2.384;2023-02-15T09:19:58;17.40;64.00
65048;DHT22;52089;51.362;-2.384;2023-02-15T09:23:41;17.40;64.00
65048;DHT22;52089;51.362;-2.384;2023-02-15T09:27:23;17.40;64.00
65048;DHT22;52089;51.362;-2.384;2023-02-15T09:31:14;17.40;64.00
65048;DHT22;52089;51.362;-2.384;2023-02-15T09:34:56;17.40;64.10
65048;DHT22;52089;51.362;-2.384;2023-02-15T09:38:38;17.40;64.00
65048;DHT22;52089;51.362;-2.384;2023-02-15T10:06:21;17.50;64.00
65048;DHT22;52089;51.362;-2.384;2023-02-15T10:10:43;17.50;64.10
65048;DHT22;52089;51.362;-2.384;2023-02-15T10:14:48;17.50;64.10
65048;DHT22;52089;51.362;-2.384;2023-02-15T10:26:46;17.50;64.10
65048;DHT22;52089;51.362;-2.384;2023-02-15T10:30:44;17.60;64.20
65048;DHT22;52089;51.362;-2.384;2023-02-15T10:42:44;17.60;64.30
65048;DHT22;52089;51.362;-2.384;2023-02-15T10:50:59;17.60;64.30
65048;DHT22;52089;51.362;-2.384;2023-02-15T10:54:46;17.60;64.30
65048;DHT22;52089;51.362;-2.384;2023-02-15T11:06:20;17.60;64.40
65048;DHT22;52089;51.362;-2.384;2023-02-15T11:10:35;17.60;64.40
65048;DHT22;52089;51.362;-2.384;2023-02-15T11:22:12;17.60;64.50
65048;DHT22;52089;51.362;-2.384;2023-02-15T11:26:03;17.70;64.60
65048;DHT22;52089;51.362;-2.384;2023-02-15T11:30:09;17.70;64.80
65048;DHT22;52089;51.362;-2.384;2023-02-15T11:34:00;17.70;64.80
65048;DHT22;52089;51.362;-2.384;2023-02-15T11:41:40;17.70;64.90
65048;DHT22;52089;51.362;-2.384;2023-02-15T11:45:30;17.70;64.90
65048;DHT22;52089;51.362;-2.384;2023-02-15T11:53:09;17.70;64.80
65048;DHT22;52089;51.362;-2.384;2023-02-15T11:56:55;17.70;65.00
65048;DHT22;52089;51.362;-2.384;2023-02-15T12:00:43;17.70;65.00
65048;DHT22;52089;51.362;-2.384;2023-02-15T12:04:38;17.70;65.10
65048;DHT22;52089;51.362;-2.384;2023-02-15T12:08:23;17.70;65.10
65048;DHT22;52089;51.362;-2.384;2023-02-15T12:12:26;17.80;65.20
65048;DHT22;52089;51.362;-2.384;2023-02-15T12:16:12;17.80;65.20
65048;DHT22;52089;51.362;-2.384;2023-02-15T12:20:00;17.80;65.30
65048;DHT22;52089;51.362;-2.384;2023-02-15T12:24:17;17.80;65.40
65048;DHT22;52089;51.362;-2.384;2023-02-15T12:27:59;17.80;65.40
65048;DHT22;52089;51.362;-2.384;2023-02-15T12:31:44;17.80;65.40
65048;DHT22;52089;51.362;-2.384;2023-02-15T12:35:31;17.90;65.60
65048;DHT22;52089;51.362;-2.384;2023-02-15T12:39:18;17.80;65.60
65048;DHT22;52089;51.362;-2.384;2023-02-15T12:43:01;17.80;65.50
65048;DHT22;52089;51.362;-2.384;2023-02-15T12:50:49;17.90;65.70
65048;DHT22;52089;51.362;-2.384;2023-02-15T12:54:42;17.90;65.70
65048;DHT22;52089;51.362;-2.384;2023-02-15T12:58:29;17.90;65.70
65048;DHT22;52089;51.362;-2.384;2023-02-15T13:02:21;17.90;66.40
65048;DHT22;52089;51.362;-2.384;2023-02-15T13:06:04;17.90;65.80
65048;DHT22;52089;51.362;-2.384;2023-02-15T13:09:49;17.90;65.70
65048;DHT22;52089;51.362;-2.384;2023-02-15T13:13:33;17.90;65.80
65048;DHT22;52089;51.362;-2.384;2023-02-15T13:17:17;17.90;65.90
65048;DHT22;52089;51.362;-2.384;2023-02-15T13:25:01;17.90;65.90
65048;DHT22;52089;51.362;-2.384;2023-02-15T13:28:55;17.90;66.00
65048;DHT22;52089;51.362;-2.384;2023-02-15T13:32:39;17.90;65.90
65048;DHT22;52089;51.362;-2.384;2023-02-15T13:40:25;17.90;66.00
65048;DHT22;52089;51.362;-2.384;2023-02-15T13:52:34;17.90;66.10
65048;DHT22;52089;51.362;-2.384;2023-02-15T14:16:24;17.90;66.10
65048;DHT22;52089;51.362;-2.384;2023-02-15T14:20:41;18.00;66.20
65048;DHT22;52089;51.362;-2.384;2023-02-15T14:24:41;17.90;66.10
65048;DHT22;52089;51.362;-2.384;2023-02-15T14:28:49;18.00;66.20
65048;DHT22;52089;51.362;-2.384;2023-02-15T14:32:39;18.00;66.20
65048;DHT22;52089;51.362;-2.384;2023-02-15T14:36:24;18.00;66.30
65048;DHT22;52089;51.362;-2.384;2023-02-15T14:44:56;18.00;66.20
65048;DHT22;52089;51.362;-2.384;2023-02-15T14:48:46;17.90;66.20
65048;DHT22;52089;51.362;-2.384;2023-02-15T14:52:29;18.00;66.90
65048;DHT22;52089;51.362;-2.384;2023-02-15T14:56:16;17.90;66.20
65048;DHT22;52089;51.362;-2.384;2023-02-15T15:00:03;17.90;66.30
65048;DHT22;52089;51.362;-2.384;2023-02-15T15:04:14;17.90;66.30
65048;DHT22;52089;51.362;-2.384;2023-02-15T15:08:04;17.90;66.30
65048;DHT22;52089;51.362;-2.384;2023-02-15T15:11:52;17.90;66.40
65048;DHT22;52089;51.362;-2.384;2023-02-15T15:15:45;17.90;66.40
65048;DHT22;52089;51.362;-2.384;2023-02-15T15:23:40;17.90;66.40
65048;DHT22;52089;51.362;-2.384;2023-02-15T15:32:00;17.90;66.50
65048;DHT22;52089;51.362;-2.384;2023-02-15T15:43:55;17.90;66.60
65048;DHT22;52089;51.362;-2.384;2023-02-15T15:51:20;17.80;66.60
65048;DHT22;52089;51.362;-2.384;2023-02-15T15:55:04;17.90;66.70
65048;DHT22;52089;51.362;-2.384;2023-02-15T15:58:58;17.90;66.70
65048;DHT22;52089;51.362;-2.384;2023-02-15T16:02:51;17.90;66.70
65048;DHT22;52089;51.362;-2.384;2023-02-15T16:06:35;17.90;67.30
65048;DHT22;52089;51.362;-2.384;2023-02-15T16:10:23;17.80;66.70
65048;DHT22;52089;51.362;-2.384;2023-02-15T16:14:16;17.80;66.70
65048;DHT22;52089;51.362;-2.384;2023-02-15T16:17:59;17.80;66.70
65048;DHT22;52089;51.362;-2.384;2023-02-15T16:21:41;17.80;66.70
65048;DHT22;52089;51.362;-2.384;2023-02-15T16:34:16;17.80;67.00
65048;DHT22;52089;51.362;-2.384;2023-02-15T16:37:59;17.80;67.20
65048;DHT22;52089;51.362;-2.384;2023-02-15T16:41:40;17.90;67.20
65048;DHT22;52089;51.362;-2.384;2023-02-15T16:45:28;17.90;67.20
65048;DHT22;52089;51.362;-2.384;2023-02-15T16:49:22;17.90;67.20
65048;DHT22;52089;51.362;-2.384;2023-02-15T16:53:07;17.90;67.20
65048;DHT22;52089;51.362;-2.384;2023-02-15T16:56:55;17.90;67.10
65048;DHT22;52089;51.362;-2.384;2023-02-15T17:00:38;17.90;67.00
65048;DHT22;52089;51.362;-2.384;2023-02-15T17:08:17;17.90;67.10
65048;DHT22;52089;51.362;-2.384;2023-02-15T17:12:00;17.90;67.10
65048;DHT22;52089;51.362;-2.384;2023-02-15T17:19:49;17.90;67.00
65048;DHT22;52089;51.362;-2.384;2023-02-15T17:23:43;17.90;67.00
65048;DHT22;52089;51.362;-2.384;2023-02-15T17:27:27;17.90;66.90
65048;DHT22;52089;51.362;-2.384;2023-02-15T17:31:13;17.90;67.00
65048;DHT22;52089;51.362;-2.384;2023-02-15T17:35:16;17.90;67.10
65048;DHT22;52089;51.362;-2.384;2023-02-15T17:42:40;17.90;67.10
65048;DHT22;52089;51.362;-2.384;2023-02-15T17:46:22;17.90;67.10
65048;DHT22;52089;51.362;-2.384;2023-02-15T17:50:05;18.00;67.10
65048;DHT22;52089;51.362;-2.384;2023-02-15T17:53:47;17.90;67.10
65048;DHT22;52089;51.362;-2.384;2023-02-15T17:57:48;17.90;67.00
65048;DHT22;52089;51.362;-2.384;2023-02-15T18:01:30;17.90;67.00
65048;DHT22;52089;51.362;-2.384;2023-02-15T18:05:30;17.90;67.00
65048;DHT22;52089;51.362;-2.384;2023-02-15T18:09:30;17.90;67.00
65048;DHT22;52089;51.362;-2.384;2023-02-15T18:13:31;17.90;66.90
65048;DHT22;52089;51.362;-2.384;2023-02-15T18:17:14;17.90;66.90
65048;DHT22;52089;51.362;-2.384;2023-02-15T18:20:56;17.90;67.00
65048;DHT22;52089;51.362;-2.384;2023-02-15T18:24:38;17.90;66.90
65048;DHT22;52089;51.362;-2.384;2023-02-15T18:28:20;17.90;66.90
65048;DHT22;52089;51.362;-2.384;2023-02-15T18:32:02;17.90;66.90
65048;DHT22;52089;51.362;-2.384;2023-02-15T18:35:44;17.90;66.90
65048;DHT22;52089;51.362;-2.384;2023-02-15T18:43:21;17.90;66.80
65048;DHT22;52089;51.362;-2.384;2023-02-15T18:47:02;17.90;66.80
65048;DHT22;52089;51.362;-2.384;2023-02-15T18:50:44;17.90;66.80
65048;DHT22;52089;51.362;-2.384;2023-02-15T18:54:26;17.90;66.70
65048;DHT22;52089;51.362;-2.384;2023-02-15T18:58:15;17.90;66.70
65048;DHT22;52089;51.362;-2.384;2023-02-15T19:01:57;17.90;66.70
65048;DHT22;52089;51.362;-2.384;2023-02-15T19:05:43;17.90;66.70
65048;DHT22;52089;51.362;-2.384;2023-02-15T19:09:25;17.90;66.60
65048;DHT22;52089;51.362;-2.384;2023-02-15T19:13:10;17.80;66.60
65048;DHT22;52089;51.362;-2.384;2023-02-15T19:16:52;17.80;66.60
65048;DHT22;52089;51.362;-2.384;2023-02-15T19:20:41;17.80;67.10
65048;DHT22;52089;51.362;-2.384;2023-02-15T19:24:36;17.80;66.50
65048;DHT22;52089;51.362;-2.384;2023-02-15T19:28:24;17.80;66.50
65048;DHT22;52089;51.362;-2.384;2023-02-15T19:32:10;17.80;66.50
65048;DHT22;52089;51.362;-2.384;2023-02-15T19:35:53;17.80;66.40
65048;DHT22;52089;51.362;-2.384;2023-02-15T19:39:39;17.80;66.40
65048;DHT22;52089;51.362;-2.384;2023-02-15T19:43:22;17.80;66.40
65048;DHT22;52089;51.362;-2.384;2023-02-15T19:47:11;17.80;66.40
65048;DHT22;52089;51.362;-2.384;2023-02-15T19:50:53;17.80;66.40
65048;DHT22;52089;51.362;-2.384;2023-02-15T19:54:37;17.80;66.40
65048;DHT22;52089;51.362;-2.384;2023-02-15T19:58:19;17.80;66.40
65048;DHT22;52089;51.362;-2.384;2023-02-15T20:02:01;17.70;66.30
65048;DHT22;52089;51.362;-2.384;2023-02-15T20:05:43;17.80;66.40
65048;DHT22;52089;51.362;-2.384;2023-02-15T20:09:29;17.70;66.30
65048;DHT22;52089;51.362;-2.384;2023-02-15T20:13:13;17.70;66.30
65048;DHT22;52089;51.362;-2.384;2023-02-15T20:16:56;17.70;66.30
65048;DHT22;52089;51.362;-2.384;2023-02-15T20:24:22;17.70;66.20
65048;DHT22;52089;51.362;-2.384;2023-02-15T20:28:05;17.70;66.20
65048;DHT22;52089;51.362;-2.384;2023-02-15T20:31:48;17.70;66.20
65048;DHT22;52089;51.362;-2.384;2023-02-15T20:35:32;17.70;66.20
65048;DHT22;52089;51.362;-2.384;2023-02-15T20:39:16;17.70;66.10
65048;DHT22;52089;51.362;-2.384;2023-02-15T20:43:00;17.70;66.10
65048;DHT22;52089;51.362;-2.384;2023-02-15T20:46:42;17.70;66.10
65048;DHT22;52089;51.362;-2.384;2023-02-15T20:50:27;17.70;66.10
65048;DHT22;52089;51.362;-2.384;2023-02-15T20:54:17;17.70;66.10
65048;DHT22;52089;51.362;-2.384;2023-02-15T20:57:59;17.70;66.10
65048;DHT22;52089;51.362;-2.384;2023-02-15T21:01:41;17.60;66.00
65048;DHT22;52089;51.362;-2.384;2023-02-15T21:05:26;17.60;66.00
65048;DHT22;52089;51.362;-2.384;2023-02-15T21:09:12;17.60;66.00
65048;DHT22;52089;51.362;-2.384;2023-02-15T21:12:55;17.60;66.00
65048;DHT22;52089;51.362;-2.384;2023-02-15T21:16:38;17.60;66.00
65048;DHT22;52089;51.362;-2.384;2023-02-15T21:20:20;17.60;65.90
65048;DHT22;52089;51.362;-2.384;2023-02-15T21:24:02;17.60;66.00
65048;DHT22;52089;51.362;-2.384;2023-02-15T21:27:44;17.60;65.90
65048;DHT22;52089;51.362;-2.384;2023-02-15T21:31:26;17.60;65.90
65048;DHT22;52089;51.362;-2.384;2023-02-15T21:35:13;17.60;65.90
65048;DHT22;52089;51.362;-2.384;2023-02-15T21:38:55;17.60;65.90
65048;DHT22;52089;51.362;-2.384;2023-02-15T21:42:36;17.50;65.80
65048;DHT22;52089;51.362;-2.384;2023-02-15T21:46:37;17.60;65.90
65048;DHT22;52089;51.362;-2.384;2023-02-15T21:50:37;17.50;66.40
65048;DHT22;52089;51.362;-2.384;2023-02-15T21:54:41;17.60;65.90
65048;DHT22;52089;51.362;-2.384;2023-02-15T21:58:25;17.60;65.80
65048;DHT22;52089;51.362;-2.384;2023-02-15T22:02:29;17.50;65.80
65048;DHT22;52089;51.362;-2.384;2023-02-15T22:06:11;17.60;65.80
65048;DHT22;52089;51.362;-2.384;2023-02-15T22:09:54;17.60;65.80
65048;DHT22;52089;51.362;-2.384;2023-02-15T22:13:36;17.50;65.80
65048;DHT22;52089;51.362;-2.384;2023-02-15T22:17:23;17.50;65.80
65048;DHT22;52089;51.362;-2.384;2023-02-15T22:21:07;17.50;66.40
65048;DHT22;52089;51.362;-2.384;2023-02-15T22:24:49;17.50;65.80
65048;DHT22;52089;51.362;-2.384;2023-02-15T22:28:36;17.50;65.70
65048;DHT22;52089;51.362;-2.384;2023-02-15T22:32:27;17.50;65.70
65048;DHT22;52089;51.362;-2.384;2023-02-15T22:36:29;17.50;65.80
65048;DHT22;52089;51.362;-2.384;2023-02-15T22:40:14;17.50;65.80
65048;DHT22;52089;51.362;-2.384;2023-02-15T22:43:56;17.50;65.70
65048;DHT22;52089;51.362;-2.384;2023-02-15T22:47:38;17.50;65.70
65048;DHT22;52089;51.362;-2.384;2023-02-15T22:51:22;17.50;65.70
65048;DHT22;52089;51.362;-2.384;2023-02-15T22:55:04;17.50;65.70
65048;DHT22;52089;51.362;-2.384;2023-02-15T22:58:46;17.50;65.70
65048;DHT22;52089;51.362;-2.384;2023-02-15T23:02:30;17.50;65.70
65048;DHT22;52089;51.362;-2.384;2023-02-15T23:06:12;17.50;65.70
65048;DHT22;52089;51.362;-2.384;2023-02-15T23:09:54;17.40;65.60
65048;DHT22;52089;51.362;-2.384;2023-02-15T23:13:36;17.40;65.60
65048;DHT22;52089;51.362;-2.384;2023-02-15T23:17:19;17.40;65.60
65048;DHT22;52089;51.362;-2.384;2023-02-15T23:21:05;17.40;65.60
65048;DHT22;52089;51.362;-2.384;2023-02-15T23:24:51;17.40;65.60
65048;DHT22;52089;51.362;-2.384;2023-02-15T23:28:36;17.40;65.60
65048;DHT22;52089;51.362;-2.384;2023-02-15T23:32:18;17.40;65.60
65048;DHT22;52089;51.362;-2.384;2023-02-15T23:36:02;17.40;65.60
65048;DHT22;52089;51.362;-2.384;2023-02-15T23:39:44;17.40;65.60
65048;DHT22;52089;51.362;-2.384;2023-02-15T23:43:48;17.40;65.60
65048;DHT22;52089;51.362;-2.384;2023-02-15T23:47:32;17.40;65.60
65048;DHT22;52089;51.362;-2.384;2023-02-15T23:51:33;17.40;65.60
65048;DHT22;52089;51.362;-2.384;2023-02-15T23:55:16;17.40;65.60
65048;DHT22;52089;51.362;-2.384;2023-02-15T23:58:58;17.40;65.60
